sensor_id;sensor_type;location;lat;lon;timestamp;P1;durP1;ratioP1;P2;durP2;ratioP2
17496;SDS011;62150;43.582;1.456;2022-11-24T06:11:26;6.73;;;2.87;;
17496;SDS011;62150;43.582;1.456;2022-11-24T06:13:53;8.70;;;2.83;;
17496;SDS011;62150;43.582;1.456;2022-11-24T06:16:21;7.40;;;2.73;;
17496;SDS011;62150;43.582;1.456;2022-11-24T06:18:48;7.67;;;3.00;;
17496;SDS011;62150;43.582;1.456;2022-11-24T06:21:16;7.67;;;3.10;;
17496;SDS011;62150;43.582;1.456;2022-11-24T06:23:46;5.37;;;2.67;;
17496;SDS011;62150;43.582;1.456;2022-11-24T06:26:13;6.83;;;2.87;;
17496;SDS011;62150;43.582;1.456;2022-11-24T06:28:43;9.13;;;2.63;;
17496;SDS011;62150;43.582;1.456;2022-11-24T06:31:10;8.53;;;3.20;;
17496;SDS011;62150;43.582;1.456;2022-11-24T06:33:38;7.27;;;3.10;;
17496;SDS011;62150;43.582;1.456;2022-11-24T06:36:06;7.30;;;2.90;;
17496;SDS011;62150;43.582;1.456;2022-11-24T06:38:35;7.73;;;2.93;;
17496;SDS011;62150;43.582;1.456;2022-11-24T06:41:03;7.67;;;2.97;;
17496;SDS011;62150;43.582;1.456;2022-11-24T06:43:34;6.77;;;2.73;;
17496;SDS011;62150;43.582;1.456;2022-11-24T06:46:03;7.63;;;2.97;;
17496;SDS011;62150;43.582;1.456;2022-11-24T06:48:31;9.17;;;3.20;;
17496;SDS011;62150;43.582;1.456;2022-11-24T06:50:59;7.87;;;2.90;;
17496;SDS011;62150;43.582;1.456;2022-11-24T06:53:28;6.97;;;2.90;;
17496;SDS011;62150;43.582;1.456;2022-11-24T06:55:56;7.87;;;3.00;;
17496;SDS011;62150;43.582;1.456;2022-11-24T06:58:25;9.37;;;3.10;;
17496;SDS011;62150;43.582;1.456;2022-11-24T07:00:53;9.03;;;3.43;;
17496;SDS011;62150;43.582;1.456;2022-11-24T07:03:22;8.33;;;3.30;;
17496;SDS011;62150;43.582;1.456;2022-11-24T07:05:54;8.47;;;3.27;;
17496;SDS011;62150;43.582;1.456;2022-11-24T07:08:22;9.10;;;3.57;;
17496;SDS011;62150;43.582;1.456;2022-11-24T07:10:50;9.57;;;3.10;;
17496;SDS011;62150;43.582;1.456;2022-11-24T07:13:18;8.17;;;3.67;;
17496;SDS011;62150;43.582;1.456;2022-11-24T07:15:45;7.87;;;3.57;;
17496;SDS011;62150;43.582;1.456;2022-11-24T07:18:14;9.30;;;3.90;;
17496;SDS011;62150;43.582;1.456;2022-11-24T07:20:43;8.17;;;3.57;;
17496;SDS011;62150;43.582;1.456;2022-11-24T07:23:10;10.43;;;3.67;;
17496;SDS011;62150;43.582;1.456;2022-11-24T07:25:38;10.87;;;4.30;;
17496;SDS011;62150;43.582;1.456;2022-11-24T07:28:05;10.53;;;4.13;;
17496;SDS011;62150;43.582;1.456;2022-11-24T07:30:33;7.97;;;3.63;;
17496;SDS011;62150;43.582;1.456;2022-11-24T07:33:00;8.97;;;4.13;;
17496;SDS011;62150;43.582;1.456;2022-11-24T07:35:28;9.03;;;3.80;;
17496;SDS011;62150;43.582;1.456;2022-11-24T07:37:58;12.20;;;4.30;;
17496;SDS011;62150;43.582;1.456;2022-11-24T07:40:25;10.33;;;4.20;;
17496;SDS011;62150;43.582;1.456;2022-11-24T07:42:53;10.17;;;4.33;;
17496;SDS011;62150;43.582;1.456;2022-11-24T07:45:21;10.07;;;4.13;;
17496;SDS011;62150;43.582;1.456;2022-11-24T07:47:48;10.10;;;4.10;;
17496;SDS011;62150;43.582;1.456;2022-11-24T07:50:16;12.10;;;4.40;;
17496;SDS011;62150;43.582;1.456;2022-11-24T07:52:44;9.80;;;4.13;;
17496;SDS011;62150;43.582;1.456;2022-11-24T07:55:13;10.43;;;4.00;;
17496;SDS011;62150;43.582;1.456;2022-11-24T07:57:40;11.23;;;4.60;;
17496;SDS011;62150;43.582;1.456;2022-11-24T08:00:08;10.50;;;4.67;;
17496;SDS011;62150;43.582;1.456;2022-11-24T08:02:37;10.40;;;4.47;;
17496;SDS011;62150;43.582;1.456;2022-11-24T08:05:04;12.03;;;4.17;;
17496;SDS011;62150;43.582;1.456;2022-11-24T08:07:33;11.03;;;4.30;;
17496;SDS011;62150;43.582;1.456;2022-11-24T08:10:00;12.97;;;4.57;;
17496;SDS011;62150;43.582;1.456;2022-11-24T08:12:29;11.67;;;4.70;;
17496;SDS011;62150;43.582;1.456;2022-11-24T08:14:57;11.60;;;4.93;;
17496;SDS011;62150;43.582;1.456;2022-11-24T08:17:24;11.00;;;4.63;;
17496;SDS011;62150;43.582;1.456;2022-11-24T08:19:53;10.67;;;4.57;;
17496;SDS011;62150;43.582;1.456;2022-11-24T08:22:21;14.13;;;5.43;;
17496;SDS011;62150;43.582;1.456;2022-11-24T08:24:48;11.53;;;5.60;;
17496;SDS011;62150;43.582;1.456;2022-11-24T08:27:16;10.93;;;5.93;;
17496;SDS011;62150;43.582;1.456;2022-11-24T08:29:46;14.43;;;6.33;;
17496;SDS011;62150;43.582;1.456;2022-11-24T08:32:13;14.07;;;6.40;;
17496;SDS011;62150;43.582;1.456;2022-11-24T08:34:41;15.17;;;5.83;;
17496;SDS011;62150;43.582;1.456;2022-11-24T08:37:08;13.63;;;5.70;;
17496;SDS011;62150;43.582;1.456;2022-11-24T08:39:36;12.43;;;5.77;;
17496;SDS011;62150;43.582;1.456;2022-11-24T08:42:04;13.27;;;5.90;;
17496;SDS011;62150;43.582;1.456;2022-11-24T08:44:31;13.07;;;5.43;;
17496;SDS011;62150;43.582;1.456;2022-11-24T08:47:00;11.97;;;4.90;;
17496;SDS011;62150;43.582;1.456;2022-11-24T08:49:28;13.33;;;5.50;;
17496;SDS011;62150;43.582;1.456;2022-11-24T08:51:55;10.67;;;4.80;;
17496;SDS011;62150;43.582;1.456;2022-11-24T08:54:24;10.03;;;4.43;;
17496;SDS011;62150;43.582;1.456;2022-11-24T08:56:52;11.37;;;4.77;;
17496;SDS011;62150;43.582;1.456;2022-11-24T08:59:19;9.77;;;4.10;;
17496;SDS011;62150;43.582;1.456;2022-11-24T09:01:47;8.67;;;3.93;;
17496;SDS011;62150;43.582;1.456;2022-11-24T09:04:16;10.87;;;4.20;;
17496;SDS011;62150;43.582;1.456;2022-11-24T09:06:43;11.10;;;3.80;;
17496;SDS011;62150;43.582;1.456;2022-11-24T09:09:11;8.33;;;3.40;;
17496;SDS011;62150;43.582;1.456;2022-11-24T09:11:39;8.20;;;3.10;;
17496;SDS011;62150;43.582;1.456;2022-11-24T09:14:06;9.37;;;3.20;;
17496;SDS011;62150;43.582;1.456;2022-11-24T09:16:33;8.10;;;3.20;;
17496;SDS011;62150;43.582;1.456;2022-11-24T09:19:02;7.40;;;3.10;;
17496;SDS011;62150;43.582;1.456;2022-11-24T09:21:33;8.20;;;3.13;;
17496;SDS011;62150;43.582;1.456;2022-11-24T09:24:03;8.03;;;3.17;;
17496;SDS011;62150;43.582;1.456;2022-11-24T09:26:32;8.23;;;3.00;;
17496;SDS011;62150;43.582;1.456;2022-11-24T09:29:01;7.57;;;3.20;;
17496;SDS011;62150;43.582;1.456;2022-11-24T09:31:31;7.23;;;2.77;;
17496;SDS011;62150;43.582;1.456;2022-11-24T09:34:00;6.67;;;2.60;;
17496;SDS011;62150;43.582;1.456;2022-11-24T09:36:29;5.90;;;2.53;;
17496;SDS011;62150;43.582;1.456;2022-11-24T09:38:58;10.33;;;3.27;;
17496;SDS011;62150;43.582;1.456;2022-11-24T09:41:37;8.93;;;3.00;;
17496;SDS011;62150;43.582;1.456;2022-11-24T09:44:24;7.60;;;3.10;;
17496;SDS011;62150;43.582;1.456;2022-11-24T09:47:15;8.93;;;3.73;;
17496;SDS011;62150;43.582;1.456;2022-11-24T09:49:53;9.23;;;3.70;;
17496;SDS011;62150;43.582;1.456;2022-11-24T09:52:31;10.07;;;4.00;;
17496;SDS011;62150;43.582;1.456;2022-11-24T09:55:16;11.93;;;4.27;;
17496;SDS011;62150;43.582;1.456;2022-11-24T09:58:05;8.57;;;3.70;;
17496;SDS011;62150;43.582;1.456;2022-11-24T10:00:43;9.20;;;3.80;;
17496;SDS011;62150;43.582;1.456;2022-11-24T10:03:14;8.80;;;3.80;;
17496;SDS011;62150;43.582;1.456;2022-11-24T10:05:48;8.20;;;3.50;;
17496;SDS011;62150;43.582;1.456;2022-11-24T10:08:21;9.00;;;4.00;;
17496;SDS011;62150;43.582;1.456;2022-11-24T10:11:08;8.63;;;3.70;;
17496;SDS011;62150;43.582;1.456;2022-11-24T10:13:57;9.33;;;3.53;;
17496;SDS011;62150;43.582;1.456;2022-11-24T10:16:44;9.33;;;3.27;;
17496;SDS011;62150;43.582;1.456;2022-11-24T10:19:21;7.97;;;3.10;;
17496;SDS011;62150;43.582;1.456;2022-11-24T10:22:03;7.53;;;2.97;;
17496;SDS011;62150;43.582;1.456;2022-11-24T10:24:50;8.70;;;3.03;;
17496;SDS011;62150;43.582;1.456;2022-11-24T10:27:34;10.37;;;2.93;;
17496;SDS011;62150;43.582;1.456;2022-11-24T10:30:11;8.27;;;2.80;;
17496;SDS011;62150;43.582;1.456;2022-11-24T10:32:41;9.07;;;3.20;;
17496;SDS011;62150;43.582;1.456;2022-11-24T10:35:13;8.10;;;3.20;;
17496;SDS011;62150;43.582;1.456;2022-11-24T10:37:44;8.70;;;3.30;;
17496;SDS011;62150;43.582;1.456;2022-11-24T10:40:23;9.90;;;3.70;;
17496;SDS011;62150;43.582;1.456;2022-11-24T10:43:00;10.03;;;3.33;;
17496;SDS011;62150;43.582;1.456;2022-11-24T10:45:29;9.37;;;3.23;;
17496;SDS011;62150;43.582;1.456;2022-11-24T10:47:57;8.27;;;3.30;;
17496;SDS011;62150;43.582;1.456;2022-11-24T10:50:26;8.77;;;3.37;;
17496;SDS011;62150;43.582;1.456;2022-11-24T10:53:00;9.60;;;3.17;;
17496;SDS011;62150;43.582;1.456;2022-11-24T10:58:27;9.67;;;2.93;;
17496;SDS011;62150;43.582;1.456;2022-11-24T11:00:57;9.43;;;2.93;;
17496;SDS011;62150;43.582;1.456;2022-11-24T11:03:27;7.97;;;3.43;;
17496;SDS011;62150;43.582;1.456;2022-11-24T11:05:59;9.40;;;3.50;;
17496;SDS011;62150;43.582;1.456;2022-11-24T11:08:30;7.67;;;2.90;;
17496;SDS011;62150;43.582;1.456;2022-11-24T11:13:55;8.03;;;2.80;;
17496;SDS011;62150;43.582;1.456;2022-11-24T11:16:29;7.80;;;2.80;;
17496;SDS011;62150;43.582;1.456;2022-11-24T11:18:59;8.20;;;2.40;;
17496;SDS011;62150;43.582;1.456;2022-11-24T11:21:32;6.40;;;2.50;;
17496;SDS011;62150;43.582;1.456;2022-11-24T11:24:01;7.37;;;2.80;;
17496;SDS011;62150;43.582;1.456;2022-11-24T11:26:38;11.30;;;3.20;;
17496;SDS011;62150;43.582;1.456;2022-11-24T11:29:15;8.03;;;2.93;;
17496;SDS011;62150;43.582;1.456;2022-11-24T11:31:57;6.47;;;2.80;;
17496;SDS011;62150;43.582;1.456;2022-11-24T11:34:33;11.23;;;3.00;;
17496;SDS011;62150;43.582;1.456;2022-11-24T11:37:02;9.17;;;2.80;;
17496;SDS011;62150;43.582;1.456;2022-11-24T11:39:31;8.33;;;2.80;;
17496;SDS011;62150;43.582;1.456;2022-11-24T11:42:09;9.83;;;2.57;;
17496;SDS011;62150;43.582;1.456;2022-11-24T11:44:45;5.60;;;2.50;;
17496;SDS011;62150;43.582;1.456;2022-11-24T11:47:18;7.17;;;2.60;;
17496;SDS011;62150;43.582;1.456;2022-11-24T11:49:49;6.73;;;2.50;;
17496;SDS011;62150;43.582;1.456;2022-11-24T11:52:32;11.47;;;2.80;;
17496;SDS011;62150;43.582;1.456;2022-11-24T11:55:27;8.70;;;2.70;;
17496;SDS011;62150;43.582;1.456;2022-11-24T11:58:23;8.37;;;2.67;;
17496;SDS011;62150;43.582;1.456;2022-11-24T12:01:32;7.87;;;2.70;;
17496;SDS011;62150;43.582;1.456;2022-11-24T12:04:14;8.07;;;2.43;;
17496;SDS011;62150;43.582;1.456;2022-11-24T12:06:53;7.07;;;2.70;;
17496;SDS011;62150;43.582;1.456;2022-11-24T12:09:34;6.57;;;2.23;;
17496;SDS011;62150;43.582;1.456;2022-11-24T12:12:21;8.47;;;2.40;;
17496;SDS011;62150;43.582;1.456;2022-11-24T12:15:08;8.00;;;2.70;;
17496;SDS011;62150;43.582;1.456;2022-11-24T12:17:47;8.20;;;2.53;;
17496;SDS011;62150;43.582;1.456;2022-11-24T12:20:22;9.87;;;3.03;;
17496;SDS011;62150;43.582;1.456;2022-11-24T12:23:04;7.87;;;2.40;;
17496;SDS011;62150;43.582;1.456;2022-11-24T12:25:43;5.80;;;2.00;;
17496;SDS011;62150;43.582;1.456;2022-11-24T12:28:18;7.77;;;2.20;;
17496;SDS011;62150;43.582;1.456;2022-11-24T12:31:00;6.83;;;2.03;;
17496;SDS011;62150;43.582;1.456;2022-11-24T12:36:36;5.30;;;2.20;;
17496;SDS011;62150;43.582;1.456;2022-11-24T12:39:18;8.50;;;2.30;;
17496;SDS011;62150;43.582;1.456;2022-11-24T12:41:56;8.97;;;2.10;;
17496;SDS011;62150;43.582;1.456;2022-11-24T12:44:39;6.90;;;2.00;;
17496;SDS011;62150;43.582;1.456;2022-11-24T12:47:18;9.20;;;2.33;;
17496;SDS011;62150;43.582;1.456;2022-11-24T12:50:00;6.27;;;1.87;;
17496;SDS011;62150;43.582;1.456;2022-11-24T12:52:34;8.73;;;2.17;;
17496;SDS011;62150;43.582;1.456;2022-11-24T12:55:10;7.33;;;2.00;;
17496;SDS011;62150;43.582;1.456;2022-11-24T12:57:43;7.03;;;2.23;;
17496;SDS011;62150;43.582;1.456;2022-11-24T13:00:20;7.93;;;2.10;;
17496;SDS011;62150;43.582;1.456;2022-11-24T13:02:54;4.53;;;1.87;;
17496;SDS011;62150;43.582;1.456;2022-11-24T13:05:40;6.30;;;1.83;;
17496;SDS011;62150;43.582;1.456;2022-11-24T13:08:15;7.43;;;2.00;;
17496;SDS011;62150;43.582;1.456;2022-11-24T13:10:47;9.70;;;2.10;;
17496;SDS011;62150;43.582;1.456;2022-11-24T13:13:15;6.73;;;2.20;;
17496;SDS011;62150;43.582;1.456;2022-11-24T13:16:05;6.60;;;2.03;;
17496;SDS011;62150;43.582;1.456;2022-11-24T13:18:43;9.47;;;2.40;;
17496;SDS011;62150;43.582;1.456;2022-11-24T13:24:21;8.23;;;2.10;;
17496;SDS011;62150;43.582;1.456;2022-11-24T13:26:51;8.53;;;2.23;;
17496;SDS011;62150;43.582;1.456;2022-11-24T13:29:34;9.10;;;2.50;;
17496;SDS011;62150;43.582;1.456;2022-11-24T13:35:16;7.07;;;2.10;;
17496;SDS011;62150;43.582;1.456;2022-11-24T13:37:46;8.20;;;2.70;;
17496;SDS011;62150;43.582;1.456;2022-11-24T13:40:38;8.17;;;2.43;;
17496;SDS011;62150;43.582;1.456;2022-11-24T13:43:23;9.13;;;2.43;;
17496;SDS011;62150;43.582;1.456;2022-11-24T13:45:51;9.40;;;2.43;;
17496;SDS011;62150;43.582;1.456;2022-11-24T13:51:21;9.93;;;2.50;;
17496;SDS011;62150;43.582;1.456;2022-11-24T13:53:51;8.83;;;2.50;;
17496;SDS011;62150;43.582;1.456;2022-11-24T13:56:23;8.50;;;2.20;;
17496;SDS011;62150;43.582;1.456;2022-11-24T13:58:56;7.90;;;1.83;;
17496;SDS011;62150;43.582;1.456;2022-11-24T14:01:26;8.30;;;2.33;;
17496;SDS011;62150;43.582;1.456;2022-11-24T14:03:57;7.23;;;2.23;;
17496;SDS011;62150;43.582;1.456;2022-11-24T14:06:45;5.83;;;2.10;;
17496;SDS011;62150;43.582;1.456;2022-11-24T14:09:25;10.53;;;2.20;;
17496;SDS011;62150;43.582;1.456;2022-11-24T14:12:00;6.63;;;2.00;;
17496;SDS011;62150;43.582;1.456;2022-11-24T14:14:37;8.43;;;2.10;;
17496;SDS011;62150;43.582;1.456;2022-11-24T14:19:49;5.53;;;2.07;;
17496;SDS011;62150;43.582;1.456;2022-11-24T14:22:19;8.07;;;2.03;;
17496;SDS011;62150;43.582;1.456;2022-11-24T14:24:53;7.83;;;2.20;;
17496;SDS011;62150;43.582;1.456;2022-11-24T14:27:25;8.57;;;2.13;;
17496;SDS011;62150;43.582;1.456;2022-11-24T14:29:56;9.07;;;2.20;;
17496;SDS011;62150;43.582;1.456;2022-11-24T14:32:24;7.80;;;2.13;;
17496;SDS011;62150;43.582;1.456;2022-11-24T14:34:52;6.60;;;2.00;;
17496;SDS011;62150;43.582;1.456;2022-11-24T14:37:20;9.60;;;2.20;;
17496;SDS011;62150;43.582;1.456;2022-11-24T14:39:48;11.93;;;2.50;;
17496;SDS011;62150;43.582;1.456;2022-11-24T14:42:18;8.50;;;2.40;;
17496;SDS011;62150;43.582;1.456;2022-11-24T14:44:49;8.27;;;2.50;;
17496;SDS011;62150;43.582;1.456;2022-11-24T14:47:24;9.43;;;2.63;;
17496;SDS011;62150;43.582;1.456;2022-11-24T14:49:54;7.23;;;2.60;;
17496;SDS011;62150;43.582;1.456;2022-11-24T14:52:30;7.03;;;2.43;;
17496;SDS011;62150;43.582;1.456;2022-11-24T14:54:58;9.07;;;2.90;;
17496;SDS011;62150;43.582;1.456;2022-11-24T14:57:30;9.37;;;2.40;;
17496;SDS011;62150;43.582;1.456;2022-11-24T15:00:14;10.93;;;2.63;;
17496;SDS011;62150;43.582;1.456;2022-11-24T15:02:44;9.20;;;2.40;;
17496;SDS011;62150;43.582;1.456;2022-11-24T15:05:16;7.47;;;2.57;;
17496;SDS011;62150;43.582;1.456;2022-11-24T15:07:45;8.80;;;2.57;;
17496;SDS011;62150;43.582;1.456;2022-11-24T15:10:19;6.83;;;2.20;;
17496;SDS011;62150;43.582;1.456;2022-11-24T15:12:52;8.23;;;2.30;;
17496;SDS011;62150;43.582;1.456;2022-11-24T15:15:22;6.87;;;2.10;;
17496;SDS011;62150;43.582;1.456;2022-11-24T15:17:56;8.67;;;2.37;;
17496;SDS011;62150;43.582;1.456;2022-11-24T15:20:25;6.93;;;2.43;;
17496;SDS011;62150;43.582;1.456;2022-11-24T15:23:17;7.97;;;2.50;;
17496;SDS011;62150;43.582;1.456;2022-11-24T15:25:48;7.93;;;2.47;;
17496;SDS011;62150;43.582;1.456;2022-11-24T15:28:17;9.57;;;2.33;;
17496;SDS011;62150;43.582;1.456;2022-11-24T15:30:48;8.03;;;2.97;;
17496;SDS011;62150;43.582;1.456;2022-11-24T15:33:17;11.30;;;3.90;;
17496;SDS011;62150;43.582;1.456;2022-11-24T15:35:45;10.33;;;3.70;;
17496;SDS011;62150;43.582;1.456;2022-11-24T15:38:13;9.47;;;3.30;;
17496;SDS011;62150;43.582;1.456;2022-11-24T15:40:42;10.87;;;3.30;;
17496;SDS011;62150;43.582;1.456;2022-11-24T15:43:25;9.50;;;3.80;;
17496;SDS011;62150;43.582;1.456;2022-11-24T15:45:55;11.07;;;3.50;;
17496;SDS011;62150;43.582;1.456;2022-11-24T15:48:24;9.50;;;3.53;;
17496;SDS011;62150;43.582;1.456;2022-11-24T15:50:52;8.63;;;3.20;;
17496;SDS011;62150;43.582;1.456;2022-11-24T15:53:22;9.67;;;2.93;;
17496;SDS011;62150;43.582;1.456;2022-11-24T15:55:53;10.53;;;3.47;;
17496;SDS011;62150;43.582;1.456;2022-11-24T15:58:23;9.60;;;3.27;;
17496;SDS011;62150;43.582;1.456;2022-11-24T16:00:51;8.90;;;3.10;;
17496;SDS011;62150;43.582;1.456;2022-11-24T16:03:19;8.30;;;3.00;;
17496;SDS011;62150;43.582;1.456;2022-11-24T16:05:46;10.07;;;3.13;;
17496;SDS011;62150;43.582;1.456;2022-11-24T16:08:17;9.50;;;3.50;;
17496;SDS011;62150;43.582;1.456;2022-11-24T16:10:45;11.37;;;3.63;;
17496;SDS011;62150;43.582;1.456;2022-11-24T16:13:13;11.33;;;3.47;;
17496;SDS011;62150;43.582;1.456;2022-11-24T16:15:42;10.87;;;3.73;;
17496;SDS011;62150;43.582;1.456;2022-11-24T16:18:10;12.30;;;3.50;;
17496;SDS011;62150;43.582;1.456;2022-11-24T16:20:38;11.47;;;3.30;;
17496;SDS011;62150;43.582;1.456;2022-11-24T16:23:06;9.77;;;3.33;;
17496;SDS011;62150;43.582;1.456;2022-11-24T16:25:33;9.97;;;3.40;;
17496;SDS011;62150;43.582;1.456;2022-11-24T16:28:01;9.50;;;3.27;;
17496;SDS011;62150;43.582;1.456;2022-11-24T16:30:29;11.07;;;3.20;;
17496;SDS011;62150;43.582;1.456;2022-11-24T16:32:59;9.13;;;3.00;;
17496;SDS011;62150;43.582;1.456;2022-11-24T16:35:29;12.37;;;3.63;;
17496;SDS011;62150;43.582;1.456;2022-11-24T16:37:57;8.67;;;3.13;;
17496;SDS011;62150;43.582;1.456;2022-11-24T16:40:25;11.57;;;4.73;;
17496;SDS011;62150;43.582;1.456;2022-11-24T16:42:52;11.07;;;4.73;;
17496;SDS011;62150;43.582;1.456;2022-11-24T16:45:22;11.00;;;4.50;;
17496;SDS011;62150;43.582;1.456;2022-11-24T16:47:49;11.53;;;4.97;;
17496;SDS011;62150;43.582;1.456;2022-11-24T16:50:18;10.53;;;4.53;;
17496;SDS011;62150;43.582;1.456;2022-11-24T16:52:46;11.23;;;4.60;;
17496;SDS011;62150;43.582;1.456;2022-11-24T16:55:13;10.87;;;5.00;;
17496;SDS011;62150;43.582;1.456;2022-11-24T16:57:41;11.07;;;4.50;;
17496;SDS011;62150;43.582;1.456;2022-11-24T17:00:10;11.27;;;4.37;;
17496;SDS011;62150;43.582;1.456;2022-11-24T17:02:40;11.93;;;4.57;;
17496;SDS011;62150;43.582;1.456;2022-11-24T17:05:07;11.53;;;5.00;;
17496;SDS011;62150;43.582;1.456;2022-11-24T17:07:36;10.67;;;4.60;;
17496;SDS011;62150;43.582;1.456;2022-11-24T17:10:05;11.10;;;4.80;;
17496;SDS011;62150;43.582;1.456;2022-11-24T17:12:33;11.67;;;5.60;;
17496;SDS011;62150;43.582;1.456;2022-11-24T17:15:02;13.90;;;6.27;;
17496;SDS011;62150;43.582;1.456;2022-11-24T17:17:30;13.47;;;6.50;;
17496;SDS011;62150;43.582;1.456;2022-11-24T17:19:57;13.93;;;6.80;;
17496;SDS011;62150;43.582;1.456;2022-11-24T17:22:25;14.97;;;6.97;;
17496;SDS011;62150;43.582;1.456;2022-11-24T17:24:54;15.23;;;7.30;;
17496;SDS011;62150;43.582;1.456;2022-11-24T17:27:21;14.90;;;7.13;;
17496;SDS011;62150;43.582;1.456;2022-11-24T17:29:49;14.50;;;7.43;;
17496;SDS011;62150;43.582;1.456;2022-11-24T17:32:17;16.67;;;9.43;;
17496;SDS011;62150;43.582;1.456;2022-11-24T17:34:44;21.80;;;13.67;;
17496;SDS011;62150;43.582;1.456;2022-11-24T17:37:12;24.60;;;15.40;;
17496;SDS011;62150;43.582;1.456;2022-11-24T17:39:39;25.87;;;15.57;;
17496;SDS011;62150;43.582;1.456;2022-11-24T17:42:08;24.30;;;14.87;;
17496;SDS011;62150;43.582;1.456;2022-11-24T17:44:36;22.07;;;12.17;;
17496;SDS011;62150;43.582;1.456;2022-11-24T17:47:03;17.87;;;9.93;;
17496;SDS011;62150;43.582;1.456;2022-11-24T17:49:31;18.17;;;10.10;;
17496;SDS011;62150;43.582;1.456;2022-11-24T17:51:58;18.13;;;9.37;;
17496;SDS011;62150;43.582;1.456;2022-11-24T17:54:26;18.90;;;9.90;;
17496;SDS011;62150;43.582;1.456;2022-11-24T17:56:53;18.57;;;10.10;;
17496;SDS011;62150;43.582;1.456;2022-11-24T17:59:22;20.17;;;10.30;;
17496;SDS011;62150;43.582;1.456;2022-11-24T18:01:50;18.30;;;9.83;;
17496;SDS011;62150;43.582;1.456;2022-11-24T18:04:17;19.23;;;11.03;;
17496;SDS011;62150;43.582;1.456;2022-11-24T18:06:45;17.77;;;10.87;;
17496;SDS011;62150;43.582;1.456;2022-11-24T18:09:12;19.40;;;10.47;;
17496;SDS011;62150;43.582;1.456;2022-11-24T18:11:40;18.50;;;9.93;;
17496;SDS011;62150;43.582;1.456;2022-11-24T18:14:08;18.40;;;10.43;;
17496;SDS011;62150;43.582;1.456;2022-11-24T18:16:37;19.70;;;10.83;;
17496;SDS011;62150;43.582;1.456;2022-11-24T18:19:04;19.70;;;11.00;;
17496;SDS011;62150;43.582;1.456;2022-11-24T18:21:34;19.87;;;10.70;;
17496;SDS011;62150;43.582;1.456;2022-11-24T18:24:03;17.63;;;10.60;;
17496;SDS011;62150;43.582;1.456;2022-11-24T18:26:30;20.77;;;12.00;;
17496;SDS011;62150;43.582;1.456;2022-11-24T18:28:58;22.17;;;11.60;;
17496;SDS011;62150;43.582;1.456;2022-11-24T18:31:25;22.97;;;11.93;;
17496;SDS011;62150;43.582;1.456;2022-11-24T18:33:54;20.40;;;12.83;;
17496;SDS011;62150;43.582;1.456;2022-11-24T18:36:22;22.33;;;13.13;;
17496;SDS011;62150;43.582;1.456;2022-11-24T18:38:49;21.10;;;13.53;;
17496;SDS011;62150;43.582;1.456;2022-11-24T18:41:17;24.80;;;15.13;;
17496;SDS011;62150;43.582;1.456;2022-11-24T18:43:46;24.90;;;14.97;;
17496;SDS011;62150;43.582;1.456;2022-11-24T18:46:14;23.83;;;14.50;;
17496;SDS011;62150;43.582;1.456;2022-11-24T18:48:43;22.30;;;13.80;;
17496;SDS011;62150;43.582;1.456;2022-11-24T18:51:12;22.30;;;13.50;;
17496;SDS011;62150;43.582;1.456;2022-11-24T18:53:40;19.27;;;12.13;;
17496;SDS011;62150;43.582;1.456;2022-11-24T18:56:10;20.97;;;12.80;;
17496;SDS011;62150;43.582;1.456;2022-11-24T18:58:39;19.70;;;12.43;;
17496;SDS011;62150;43.582;1.456;2022-11-24T19:01:08;21.20;;;12.50;;
17496;SDS011;62150;43.582;1.456;2022-11-24T19:03:37;19.57;;;11.77;;
17496;SDS011;62150;43.582;1.456;2022-11-24T19:06:06;18.87;;;11.87;;
17496;SDS011;62150;43.582;1.456;2022-11-24T19:08:37;19.60;;;11.70;;
17496;SDS011;62150;43.582;1.456;2022-11-24T19:11:05;21.13;;;11.77;;
17496;SDS011;62150;43.582;1.456;2022-11-24T19:13:32;20.70;;;12.43;;
17496;SDS011;62150;43.582;1.456;2022-11-24T19:16:01;19.67;;;11.93;;
17496;SDS011;62150;43.582;1.456;2022-11-24T19:18:35;19.60;;;12.43;;
17496;SDS011;62150;43.582;1.456;2022-11-24T19:21:03;20.07;;;11.67;;
17496;SDS011;62150;43.582;1.456;2022-11-24T19:23:30;19.23;;;11.00;;
17496;SDS011;62150;43.582;1.456;2022-11-24T19:26:00;17.53;;;8.70;;
17496;SDS011;62150;43.582;1.456;2022-11-24T19:28:28;13.23;;;6.53;;
17496;SDS011;62150;43.582;1.456;2022-11-24T19:30:58;13.67;;;6.57;;
17496;SDS011;62150;43.582;1.456;2022-11-24T19:33:26;14.70;;;6.33;;
17496;SDS011;62150;43.582;1.456;2022-11-24T19:36:00;15.57;;;6.17;;
17496;SDS011;62150;43.582;1.456;2022-11-24T19:38:28;14.00;;;6.20;;
17496;SDS011;62150;43.582;1.456;2022-11-24T19:41:02;12.67;;;5.60;;
17496;SDS011;62150;43.582;1.456;2022-11-24T19:43:30;12.77;;;5.43;;
17496;SDS011;62150;43.582;1.456;2022-11-24T19:45:59;14.07;;;5.57;;
17496;SDS011;62150;43.582;1.456;2022-11-24T19:48:28;13.37;;;6.03;;
17496;SDS011;62150;43.582;1.456;2022-11-24T19:50:58;14.33;;;6.90;;
17496;SDS011;62150;43.582;1.456;2022-11-24T19:53:26;12.87;;;5.37;;
17496;SDS011;62150;43.582;1.456;2022-11-24T19:55:53;12.73;;;5.20;;
17496;SDS011;62150;43.582;1.456;2022-11-24T19:58:22;12.20;;;4.73;;
17496;SDS011;62150;43.582;1.456;2022-11-24T20:00:50;11.83;;;4.87;;
17496;SDS011;62150;43.582;1.456;2022-11-24T20:03:17;10.90;;;4.40;;
17496;SDS011;62150;43.582;1.456;2022-11-24T20:05:52;11.13;;;4.20;;
17496;SDS011;62150;43.582;1.456;2022-11-24T20:08:20;11.60;;;4.50;;
17496;SDS011;62150;43.582;1.456;2022-11-24T20:10:48;10.73;;;4.33;;
17496;SDS011;62150;43.582;1.456;2022-11-24T20:13:15;11.20;;;4.00;;
17496;SDS011;62150;43.582;1.456;2022-11-24T20:15:44;12.63;;;4.07;;
17496;SDS011;62150;43.582;1.456;2022-11-24T20:18:12;9.10;;;3.90;;
17496;SDS011;62150;43.582;1.456;2022-11-24T20:20:39;12.17;;;4.30;;
17496;SDS011;62150;43.582;1.456;2022-11-24T20:23:07;12.03;;;4.33;;
17496;SDS011;62150;43.582;1.456;2022-11-24T20:25:35;11.33;;;3.90;;
17496;SDS011;62150;43.582;1.456;2022-11-24T20:28:03;10.63;;;4.03;;
17496;SDS011;62150;43.582;1.456;2022-11-24T20:30:31;13.53;;;4.43;;
17496;SDS011;62150;43.582;1.456;2022-11-24T20:33:00;12.50;;;4.40;;
17496;SDS011;62150;43.582;1.456;2022-11-24T20:35:28;11.93;;;4.67;;
17496;SDS011;62150;43.582;1.456;2022-11-24T20:37:55;12.57;;;4.30;;
17496;SDS011;62150;43.582;1.456;2022-11-24T20:40:23;11.53;;;4.17;;
17496;SDS011;62150;43.582;1.456;2022-11-24T20:42:50;11.83;;;4.43;;
17496;SDS011;62150;43.582;1.456;2022-11-24T20:45:18;11.87;;;4.80;;
17496;SDS011;62150;43.582;1.456;2022-11-24T20:47:45;14.40;;;5.27;;
17496;SDS011;62150;43.582;1.456;2022-11-24T20:50:14;13.73;;;6.33;;
17496;SDS011;62150;43.582;1.456;2022-11-24T20:52:42;12.30;;;5.57;;
17496;SDS011;62150;43.582;1.456;2022-11-24T20:55:10;15.43;;;5.90;;
17496;SDS011;62150;43.582;1.456;2022-11-24T20:57:37;14.43;;;6.33;;
17496;SDS011;62150;43.582;1.456;2022-11-24T21:00:05;12.70;;;5.57;;
17496;SDS011;62150;43.582;1.456;2022-11-24T21:02:33;15.93;;;6.13;;
17496;SDS011;62150;43.582;1.456;2022-11-24T21:05:01;15.93;;;7.03;;
17496;SDS011;62150;43.582;1.456;2022-11-24T21:07:30;20.33;;;7.83;;
17496;SDS011;62150;43.582;1.456;2022-11-24T21:09:57;14.73;;;7.33;;
17496;SDS011;62150;43.582;1.456;2022-11-24T21:12:26;14.27;;;6.70;;
17496;SDS011;62150;43.582;1.456;2022-11-24T21:14:53;16.20;;;5.80;;
17496;SDS011;62150;43.582;1.456;2022-11-24T21:17:21;14.90;;;6.07;;
17496;SDS011;62150;43.582;1.456;2022-11-24T21:19:48;17.10;;;7.00;;
17496;SDS011;62150;43.582;1.456;2022-11-24T21:22:16;14.47;;;6.70;;
17496;SDS011;62150;43.582;1.456;2022-11-24T21:24:45;17.80;;;8.20;;
17496;SDS011;62150;43.582;1.456;2022-11-24T21:27:12;17.53;;;8.03;;
17496;SDS011;62150;43.582;1.456;2022-11-24T21:29:40;16.83;;;7.33;;
17496;SDS011;62150;43.582;1.456;2022-11-24T21:32:07;16.70;;;7.07;;
17496;SDS011;62150;43.582;1.456;2022-11-24T21:34:35;17.00;;;6.73;;